6799385 - Pebble Creek at Scribner

Latitude:
41.65880º N
Longitude:
96.68409º W
Type:
Stream
River Basin:
Elkhorn
Source:
NeDNR

Info! The graphs are now plotted with new date ranges.
Warning! If you see this please check date range (or) the data is not available.

 to 


—— Provisional Data Subject to Revision ——

Instantaneous Discharge

6799385 - Pebble Creek at Scribner
- Ice Possible      - Equipment Malfunction
- Seasonal      -Rating in Development
- Measured



Instantaneous Stage

6799385 - Pebble Creek at Scribner
- Ice Possible      - Equipment Malfunction
- Seasonal      -Rating in Development
- Measured



 to 


—— Provisional Data Subject to Revision ——

Daily Discharge

6799385 - Pebble Creek at Scribner
- Approved      - Provisional


Export
Date Time Discharge (cfs) Stage (feet) Shift (feet)
10/22/2019 13:30 70.5 2.71 0.17
09/04/2019 15:15 40.3 2.45 0.02
08/14/2019 18:30 75.0 2.56 0.38
07/30/2019 12:00 58.7 2.60 0.14
07/11/2019 11:27 91.3 2.92 0.21
05/13/2019 13:30 111 3.01 0.32
03/15/2019 14:00 543 10.41 -4.22
02/19/2019 14:15 81.3 3.70 -0.68
01/08/2019 15:55 130 3.47 0.05
12/20/2018 12:10 135 3.47 0.10
11/14/2018 16:25 86.1 2.95 0.12
10/02/2018 16:30 93.9 3.08 0.07
09/19/2018 15:30 90.5 3.03 0.09
08/28/2018 14:15 64.7 2.72 0.09
07/16/2018 14:00 190 3.52 0.51
06/26/2018 16:35 2,380 13.42 -0.94
06/07/2018 4:19 396 5.47 -0.07
05/11/2018 17:13 95.7 3.27 -0.10
03/12/2018 12:25 78.2 2.99 0.33
01/31/2018 10:23 57.9 2.89 0.11
01/03/2018 11:00 51.7 3.25 -0.37
11/30/2017 13:15 70.8 2.87 0.35
10/19/2017 13:30 95.9 3.10 0.43
09/18/2017 16:44 57.1 2.74 0.25
08/16/2017 13:56 2,910 13.75 -0.07
07/25/2017 17:00 59.1 2.78 0.24
06/21/2017 11:35 107 3.38 0.28
05/17/2017 14:00 1,430 9.46 0.79
05/15/2017 1:19 110 3.25 0.44
04/17/2017 17:00 107 3.23 0.43
03/16/2017 15:25 85.1 2.85 0.56
02/28/2017 15:11 98.5 3.12 0.44
01/31/2017 12:40 244 3.94 0.99
12/27/2016 15:15 132 3.47 0.45
11/17/2016 10:46 79.2 3.01 0.33
10/17/2016 12:00 150 3.30 0.81
09/20/2016 14:31 160 3.75 0.46
09/16/2016 15:36 6,460 20.89 -2.46
08/02/2016 11:50 2,680 13.30 -0.09
07/11/2016 12:45 209 3.78 0.87
06/22/2016 9:40 261 5.24 -0.18
06/07/2016 10:13 115 3.58 0.16
05/11/2016 18:00 1,070 8.62 0.53
03/08/2016 17:00 98.5 3.25 0.31
01/28/2016 15:00 76.5 2.91 0.39
01/08/2016 14:00 92.3 3.11 0.38
12/09/2015 11:00 80.1 3.14 0.21
11/28/2015 16:00 65.6 2.96 0.18
10/27/2015 15:00 49.3 2.69 0.14
10/08/2015 13:30 62.9 2.80 0.29
08/20/2015 16:30 51.0 2.72 0.14
07/09/2015 13:51 68.8 2.89 0.31
06/18/2015 13:42 126 3.65 0.21
05/22/2015 17:30 73.2 2.93 0.33
04/23/2015 11:30 52.4 2.68 0.21
03/05/2015 11:00 44.3 3.05 -0.34
01/26/2015 12:00 48.3 2.46 0.35
12/04/2014 10:45 35.3 2.52 -0.04
10/28/2014 14:00 37.1 2.38 0.15
10/09/2014 14:45 39.9 2.42 0.19
09/15/2014 16:00 55.4 2.59 0.36
08/05/2014 17:00 42.7 2.39 0.29
06/27/2014 15:45 9,280 22.51 -2.10
06/04/2014 13:15 1,080 9.31 -0.13
05/20/2014 11:45 45.9 3.05 -0.30
04/24/2014 14:30 73.7 3.27 0.00
03/12/2014 16:15 35.8 2.75 -0.26
02/19/2014 10:30 30.9 3.05 -0.69
01/26/2014 11:00 22.0 3.27 -1.20
11/18/2013 14:15 27.4 2.62 -0.37
10/04/2013 14:30 310 5.38 0.40
09/26/2013 14:45 10.6 2.31 0.38
08/13/2013 16:15 18.8 2.35 0.58
07/16/2013 16:15 26.9 2.53 0.58
05/30/2013 15:00 479 6.34 0.37
05/13/2013 12:45 32.0 2.66 0.55
04/04/2013 15:10 20.6 2.48 0.49
03/20/2013 13:35 27.6 2.66 0.46
02/05/2013 15:45 20.4 2.63 0.33
12/14/2012 16:00 15.2 2.52 0.31
11/19/2012 11:00 12.4 2.45 0.30
10/31/2012 12:35 11.2 2.42 0.29
09/17/2012 13:45 7.80 2.22 0.37
07/26/2012 17:15 17.8 2.41 0.49
07/02/2012 16:15 28.9 2.57 0.58
06/11/2012 15:00 39.2 2.70 0.64
04/30/2012 15:00 37.7 2.76 0.55
03/19/2012 11:15 34.2 2.70 0.55
02/16/2012 15:00 34.4 2.78 0.47
01/26/2012 15:45 35.2 3.05 0.22
12/19/2011 16:45 37.7 2.82 0.49
11/28/2011 16:00 30.9 2.74 0.45
10/14/2011 16:00 33.1 2.72 0.51
09/21/2011 15:00 26.6 2.64 0.46
08/17/2011 13:45 43.2 2.83 0.58
08/04/2011 12:10 47.7 2.86 0.62
06/20/2011 11:00 1,060 9.06 -0.05
05/20/2011 16:00 710 7.49 0.25
05/06/2011 13:00 58.1 3.07 0.56
04/13/2011 12:30 43.2 2.80 0.61
02/24/2011 14:15 67.5 3.08 0.68
02/12/2011 14:15 37.0 3.88 -0.58
12/30/2010 14:30 61.7 3.01 0.67
12/02/2010 12:00 54.2 3.48 0.10
10/14/2010 18:00 44.1 2.77 0.65
09/15/2010 15:10 39.6 2.71 0.64
08/12/2010 11:00 63.4 3.20 0.50
07/28/2010 10:40 72.2 3.38 0.44
06/10/2010 17:00 8,650 22.44 -2.35
06/02/2010 17:00 250 4.88 0.52
05/26/2010 13:20 86.6 3.50 0.49
05/07/2010 14:00 65.5 3.17 0.56
04/30/2010 19:15 74.8 3.32 0.53
03/22/2010 16:30 138 3.89 0.63
02/03/2010 15:45 42.0 3.82 -0.43
01/13/2010 11:30 34.8 3.98 -0.72
11/30/2009 12:50 36.0 2.70 0.58
10/26/2009 14:00 48.6 2.86 0.63
09/23/2009 11:30 25.0 2.50 0.57
08/27/2009 1:00 38.0 2.70 0.62
07/22/2009 12:00 38.4 2.77 0.55
06/22/2009 13:20 94.4 3.42 0.66
05/29/2009 18:30 34.2 2.70 0.55
04/22/2009 14:00 54.0 2.96 0.61
03/18/2009 13:30 49.4 2.91 0.59
02/11/2009 15:00 123 3.66 0.72
01/22/2009 16:00 48.8 3.74 -0.25
11/17/2008 15:45 52.8 2.82 0.73
10/27/2008 14:35 68.7 3.00 0.77
09/15/2008 14:40 20.2 2.44 0.52
08/20/2008 13:15 18.7 2.38 0.54
07/10/2008 14:05 65.0 3.12 0.61
06/19/2008 14:10 85.0 3.40 0.57
05/30/2008 15:25 4,680 17.64 -1.06
04/23/2008 12:10 55.6 3.22 0.38
04/09/2008 15:20 44.0 2.98 0.44
03/01/2008 14:45 656 7.25 0.26
01/31/2008 16:30 31.6 3.73 -0.53
12/31/2007 15:30 39.2 3.75 -0.41
11/28/2007 11:00 34.1 2.94 0.31
11/07/2007 13:30 41.6 3.07 0.31
10/30/2007 10:45 53.2 3.18 0.38
09/05/2007 17:45 26.4 2.86 0.24
08/15/2007 16:35 30.8 2.95 0.24
07/18/2007 15:54 17.8 2.54 0.37
06/14/2007 16:34 46.2 3.06 0.39
05/02/2007 11:18 64.0 3.31 0.40
04/12/2007 14:21 63.2 3.18 0.52
03/22/2007 12:13 33.1 2.88 0.35
02/27/2007 12:35 64.3 3.35 0.37
01/19/2007 15:47 16.5 3.04 -0.17
01/05/2007 14:30 27.2 2.86 0.25
12/14/2006 12:09 17.6 2.67 0.23
11/08/2006 14:28 14.3 2.63 0.18
10/16/2006 13:38 13.6 2.57 0.22
09/25/2006 15:05 17.8 2.67 0.23
08/17/2006 14:07 10.9 2.44 0.26
07/20/2006 13:07 6.34 2.45 0.09
06/14/2006 1:00 13.6 2.65 0.14
05/17/2006 14:22 21.8 2.78 0.22
04/13/2006 13:21 26.0 2.79 0.30
03/29/2006 12:52 42.3 3.01 0.38
02/22/2006 0:00 17.4 2.92 -0.03
01/25/2006 11:25 24.1 2.76 0.29
12/19/2005 14:45 12.6 2.98 -0.22
11/07/2005 11:30 13.1 2.65 0.12
10/17/2005 13:25 11.9 2.60 0.14
09/29/2005 15:15 9.92 2.53 0.14
07/18/2005 13:00 48.5 3.08 0.41
06/13/2005 13:50 60.7 3.32 0.35
05/16/2005 13:45 64.2 3.40 0.31
04/22/2005 13:20 106 3.93 0.28
03/28/2005 13:30 24.7 2.80 0.26
03/23/2005 13:40 20.7 2.77 0.20
02/16/2005 16:00 49.2 3.24 0.26
01/26/2005 15:15 30.2 3.52 -0.35
12/09/2004 11:50 19.6 2.82 0.12
11/22/2004 13:38 19.1 2.81 0.13
10/06/2004 15:10 12.4 2.76 -0.01
09/16/2004 11:25 13.2 2.72 0.05
Export



Download Rating Curve
  
0.67     0.01
0.68     0.01
0.69     0.01
0.70     0.01
0.71     0.01
0.72     0.01
0.73     0.01
0.74     0.01
0.75     0.01
0.76     0.01
0.77     0.01
0.78     0.02
0.79     0.02
0.80     0.02
0.81     0.02
0.82     0.02
0.83     0.03
0.84     0.03
0.85     0.03
0.86     0.03
0.87     0.04
0.88     0.04
0.89     0.04
0.90     0.05
0.91     0.05
0.92     0.05
0.93     0.06
0.94     0.06
0.95     0.07
0.96     0.07
0.97     0.08
0.98     0.09
0.99     0.09
1.00     0.10
1.01     0.11
1.02     0.12
1.03     0.13
1.04     0.13
1.05     0.14
1.06     0.15
1.07     0.17
1.08     0.18
1.09     0.19
1.10     0.20
1.11     0.22
1.12     0.23
1.13     0.25
1.14     0.26
1.15     0.28
1.16     0.30
1.17     0.32
1.18     0.34
1.19     0.36
1.20     0.38
1.21     0.41
1.22     0.43
1.23     0.46
1.24     0.49
1.25     0.52
1.26     0.55
1.27     0.58
1.28     0.61
1.29     0.65
1.30     0.69
1.31     0.73
1.32     0.77
1.33     0.81
1.34     0.86
1.35     0.91
1.36     0.96
1.37     1.01
1.38     1.06
1.39     1.12
1.40     1.18
1.41     1.24
1.42     1.31
1.43     1.38
1.44     1.45
1.45     1.53
1.46     1.61
1.47     1.69
1.48     1.77
1.49     1.86
1.50     1.96
1.51     2.05
1.52     2.16
1.53     2.26
1.54     2.37
1.55     2.49
1.56     2.61
1.57     2.73
1.58     2.86
1.59     3.00
1.60     3.14
1.61     3.28
1.62     3.43
1.63     3.59
1.64     3.76
1.65     3.93
1.66     4.11
Download Rating Curve